Time;durP1;ratioP1;P1;durP2;ratioP2;P2;SDS_P1;SDS_P2;PMS_P1;PMS_P2;Temp;Humidity;BMP_temperature;BMP_pressure;BME280_temperature;BME280_humidity;BME280_pressure;Samples;Min_cycle;Max_cycle;Signal;HPM_P1;HPM_P2
2021/11/08 00:01:04;;;;;;;16.00;5.97;;;8.50;87.80;;;;;;5079244;28;20031;-76
2021/11/08 00:03:33;;;;;;;14.85;5.32;;;8.40;87.90;;;;;;5079463;28;20063;-77
2021/11/08 00:06:03;;;;;;;14.88;5.47;;;8.40;87.40;;;;;;5078103;28;20055;-76
2021/11/08 00:08:29;;;;;;;15.93;5.78;;;8.30;88.00;;;;;;5078510;28;20450;-76
2021/11/08 00:10:55;;;;;;;21.33;5.32;;;8.30;89.10;;;;;;5079189;28;20052;-76
2021/11/08 00:13:22;;;;;;;18.58;6.65;;;8.30;89.40;;;;;;5079481;28;20028;-76
2021/11/08 00:16:16;;;;;;;12.57;4.57;;;8.20;89.20;;;;;;5078912;28;20027;-76
2021/11/08 00:21:06;;;;;;;19.85;6.93;;;8.10;88.40;;;;;;5079531;28;20147;-76
2021/11/08 00:23:33;;;;;;;17.73;6.28;;;8.10;89.30;;;;;;5079027;28;20048;-76
2021/11/08 00:25:59;;;;;;;21.20;7.10;;;8.10;89.40;;;;;;5078994;28;20544;-76
2021/11/08 00:28:25;;;;;;;23.35;7.32;;;8.00;89.40;;;;;;5077814;28;20024;-76
2021/11/08 00:30:53;;;;;;;12.68;5.60;;;8.00;88.90;;;;;;5078949;28;20020;-76
2021/11/08 00:33:19;;;;;;;19.92;5.95;;;8.00;89.30;;;;;;5078832;28;20020;-76
2021/11/08 00:35:57;;;;;;;21.02;6.55;;;8.00;90.00;;;;;;5077551;28;20028;-76
2021/11/08 00:38:24;;;;;;;14.93;5.60;;;8.00;90.30;;;;;;5078792;28;20039;-76
2021/11/08 00:40:51;;;;;;;15.40;5.70;;;8.00;90.60;;;;;;5078787;28;20028;-76
2021/11/08 00:43:18;;;;;;;14.95;4.75;;;7.90;90.60;;;;;;5078599;28;20025;-76
2021/11/08 00:45:44;;;;;;;14.68;5.55;;;7.90;90.40;;;;;;5078526;28;20020;-76
2021/11/08 00:48:12;;;;;;;17.50;5.38;;;7.90;90.30;;;;;;5078554;28;20078;-76
2021/11/08 00:50:38;;;;;;;21.40;5.18;;;7.80;90.40;;;;;;5067172;28;20483;-76
2021/11/08 00:53:05;;;;;;;16.58;5.82;;;7.80;90.20;;;;;;5076552;28;20032;-76
2021/11/08 00:55:32;;;;;;;17.77;5.72;;;7.70;90.20;;;;;;5078481;28;20028;-76
2021/11/08 00:58:01;;;;;;;10.77;3.95;;;7.70;90.00;;;;;;5078366;28;20430;-76
2021/11/08 01:00:30;;;;;;;15.32;4.25;;;7.60;89.30;;;;;;5078262;28;20016;-76
2021/11/08 01:02:58;;;;;;;15.05;5.35;;;7.60;88.90;;;;;;5078170;28;20036;-76
2021/11/08 01:05:24;;;;;;;10.68;4.75;;;7.60;89.00;;;;;;5078367;28;20104;-76
2021/11/08 01:07:50;;;;;;;12.75;4.88;;;7.60;90.00;;;;;;5078150;28;20058;-77
2021/11/08 01:10:18;;;;;;;13.90;4.72;;;7.60;90.00;;;;;;5078233;28;20158;-77
2021/11/08 01:12:45;;;;;;;13.85;4.43;;;7.60;90.30;;;;;;5064833;28;20021;-77
2021/11/08 01:15:13;;;;;;;14.77;4.78;;;7.50;90.10;;;;;;5077847;28;20587;-77
2021/11/08 01:17:40;;;;;;;16.38;4.80;;;7.50;90.40;;;;;;5076857;28;20025;-76
2021/11/08 01:20:09;;;;;;;17.80;6.00;;;7.50;90.50;;;;;;5078167;28;20031;-77
2021/11/08 01:22:36;;;;;;;13.52;5.30;;;7.50;90.50;;;;;;5078149;28;20108;-77
2021/11/08 01:25:04;;;;;;;12.43;4.00;;;7.40;90.10;;;;;;5077722;28;20407;-77
2021/11/08 01:27:40;;;;;;;9.02;4.13;;;7.40;89.60;;;;;;5077499;28;20078;-77
2021/11/08 01:30:28;;;;;;;14.82;3.58;;;7.40;89.10;;;;;;5077342;28;20406;-77
2021/11/08 01:33:03;;;;;;;8.48;3.35;;;7.30;88.60;;;;;;5077986;28;20395;-77
2021/11/08 01:35:57;;;;;;;17.65;4.80;;;7.30;88.30;;;;;;5065682;28;20021;-77
2021/11/08 01:38:25;;;;;;;7.95;3.60;;;7.30;88.40;;;;;;5077765;28;20033;-77
2021/11/08 01:40:53;;;;;;;9.40;4.50;;;7.20;88.20;;;;;;5077650;28;20031;-77
2021/11/08 01:43:23;;;;;;;11.07;3.85;;;7.20;88.00;;;;;;5077456;28;20028;-77
2021/11/08 01:45:49;;;;;;;11.90;4.40;;;7.20;87.90;;;;;;5077293;28;20021;-77
2021/11/08 01:48:15;;;;;;;13.52;4.47;;;7.10;87.70;;;;;;5077920;28;20376;-77
2021/11/08 01:50:43;;;;;;;6.97;3.40;;;7.10;87.60;;;;;;5065619;28;20083;-77
2021/11/08 01:53:11;;;;;;;15.50;4.50;;;7.10;87.80;;;;;;5076199;28;20094;-76
2021/11/08 01:55:37;;;;;;;17.30;4.30;;;7.10;88.90;;;;;;5077511;28;20021;-77
2021/11/08 01:58:03;;;;;;;8.23;4.13;;;7.10;90.10;;;;;;5077421;28;20028;-77
2021/11/08 02:00:29;;;;;;;13.35;4.60;;;7.10;90.00;;;;;;5075961;28;20052;-77
2021/11/08 02:02:56;;;;;;;13.13;3.72;;;7.10;89.40;;;;;;5077217;28;20025;-77
2021/11/08 02:05:22;;;;;;;13.52;3.92;;;7.00;88.80;;;;;;5077452;28;20500;-77
2021/11/08 02:07:49;;;;;;;14.18;4.95;;;7.00;88.40;;;;;;5076338;28;20027;-77
2021/11/08 02:10:17;;;;;;;9.85;4.05;;;7.00;88.60;;;;;;5077126;28;20020;-76
2021/11/08 02:12:44;;;;;;;19.20;4.65;;;6.90;88.60;;;;;;5077424;28;20024;-76
2021/11/08 02:15:16;;;;;;;13.85;4.20;;;6.90;89.00;;;;;;5075675;28;20035;-76
2021/11/08 02:17:46;;;;;;;15.98;4.13;;;7.00;89.60;;;;;;5077508;28;20032;-76
2021/11/08 02:20:19;;;;;;;13.55;4.47;;;7.00;90.40;;;;;;5077075;28;20036;-76
2021/11/08 02:22:50;;;;;;;11.00;3.88;;;7.00;90.70;;;;;;5077198;28;20021;-76
2021/11/08 02:25:21;;;;;;;10.85;3.63;;;7.00;90.30;;;;;;5076938;28;20020;-76
2021/11/08 02:27:49;;;;;;;10.88;3.70;;;6.90;90.00;;;;;;5076860;28;20020;-76
2021/11/08 02:30:16;;;;;;;10.57;4.15;;;6.90;89.50;;;;;;5076847;28;20035;-76
2021/11/08 02:32:43;;;;;;;17.20;5.07;;;6.90;89.10;;;;;;5077250;28;20383;-76
2021/11/08 02:35:13;;;;;;;12.57;4.70;;;6.90;89.40;;;;;;5076978;28;20082;-76
2021/11/08 02:37:40;;;;;;;10.68;4.22;;;6.80;90.10;;;;;;5076945;28;20040;-77
2021/11/08 02:40:08;;;;;;;14.13;4.22;;;6.80;90.30;;;;;;5077163;28;20510;-77
2021/11/08 02:42:34;;;;;;;12.35;4.88;;;6.80;90.20;;;;;;5076839;28;20016;-76
2021/11/08 02:45:03;;;;;;;13.45;4.00;;;6.80;90.40;;;;;;5076985;28;20037;-76
2021/11/08 02:47:29;;;;;;;14.68;5.20;;;6.80;90.20;;;;;;5076957;28;20019;-77
2021/11/08 02:49:57;;;;;;;10.70;3.47;;;6.80;90.00;;;;;;5071667;28;20025;-76
2021/11/08 02:52:25;;;;;;;9.63;3.92;;;6.80;89.70;;;;;;5073405;28;20123;-76
2021/11/08 02:54:51;;;;;;;13.07;3.72;;;6.80;89.30;;;;;;5080563;28;20029;-77
2021/11/08 02:57:24;;;;;;;9.75;3.42;;;6.80;89.10;;;;;;5080873;28;20056;-77
2021/11/08 02:59:51;;;;;;;7.45;3.13;;;6.80;88.90;;;;;;5067632;28;20042;-76
2021/11/08 03:02:19;;;;;;;9.65;3.58;;;6.80;88.80;;;;;;5080553;28;20099;-77
2021/11/08 03:04:48;;;;;;;13.25;4.45;;;6.70;88.70;;;;;;5080568;28;20035;-76
2021/11/08 03:07:16;;;;;;;10.45;3.53;;;6.70;88.70;;;;;;5080456;28;20027;-76
2021/11/08 03:09:49;;;;;;;9.43;3.03;;;6.70;88.60;;;;;;5080781;28;20073;-77
2021/11/08 03:12:18;;;;;;;11.15;3.58;;;6.70;88.60;;;;;;5076804;28;20024;-76
2021/11/08 03:15:38;;;;;;;9.70;3.72;;;6.70;88.70;;;;;;5080521;28;20021;-76
2021/11/08 03:17:39;;;;;;;7.68;3.30;;;6.70;88.70;;;;;;5058975;28;20090;-77
2021/11/08 03:20:08;;;;;;;8.05;3.80;;;6.80;88.90;;;;;;5080478;28;20025;-77
2021/11/08 03:22:34;;;;;;;11.75;4.13;;;6.80;89.10;;;;;;5080267;28;20476;-76
2021/11/08 03:25:14;;;;;;;15.02;4.30;;;6.90;89.60;;;;;;5080224;28;20031;-77
2021/11/08 03:30:15;;;;;;;7.72;4.57;;;6.90;90.60;;;;;;5079733;28;20016;-76
2021/11/08 03:32:50;;;;;;;12.73;3.92;;;6.90;90.40;;;;;;5080094;28;20028;-76
2021/11/08 03:35:23;;;;;;;9.32;3.80;;;6.90;90.20;;;;;;5080183;28;20078;-76
2021/11/08 03:37:49;;;;;;;;;;;7.00;90.30;;;;;;5080252;28;20522;-77
2021/11/08 03:40:22;;;;;;;13.52;4.25;;;7.10;90.80;;;;;;5078703;28;19904;-77
2021/11/08 03:42:49;;;;;;;15.43;4.43;;;7.10;91.10;;;;;;5079911;28;20392;-76
2021/11/08 03:45:15;;;;;;;11.77;3.88;;;7.20;91.30;;;;;;5079693;28;20471;-76
2021/11/08 03:47:42;;;;;;;15.43;4.55;;;7.30;91.50;;;;;;5079884;28;20027;-76
2021/11/08 03:50:09;;;;;;;21.92;4.75;;;7.30;91.70;;;;;;5072485;28;20013;-76
2021/11/08 03:52:37;;;;;;;17.90;4.72;;;7.40;91.80;;;;;;5073754;28;20020;-76
2021/11/08 03:55:07;;;;;;;15.75;4.60;;;7.40;92.00;;;;;;5079920;28;20025;-76
2021/11/08 03:57:33;;;;;;;10.35;4.55;;;7.50;92.20;;;;;;5079759;28;20009;-76
2021/11/08 03:59:59;;;;;;;12.10;4.28;;;7.50;92.10;;;;;;5079433;28;20032;-76
2021/11/08 04:02:27;;;;;;;16.58;5.18;;;7.60;92.20;;;;;;5078359;28;20031;-76
2021/11/08 04:04:53;;;;;;;12.02;3.85;;;7.60;92.10;;;;;;5079653;28;20074;-77
2021/11/08 04:07:19;;;;;;;12.18;3.92;;;7.60;92.20;;;;;;5079452;28;20020;-76
2021/11/08 04:09:45;;;;;;;10.48;4.43;;;7.70;92.20;;;;;;5078112;28;20024;-76
2021/11/08 04:12:11;;;;;;;12.50;3.92;;;7.70;92.30;;;;;;5079325;28;20012;-76
2021/11/08 04:14:40;;;;;;;16.92;4.43;;;7.70;92.00;;;;;;5077932;28;20032;-76
2021/11/08 04:17:06;;;;;;;9.50;3.72;;;7.70;91.60;;;;;;5079392;28;20079;-76
2021/11/08 04:19:33;;;;;;;12.07;5.05;;;7.70;91.30;;;;;;5079417;28;20089;-76
2021/11/08 04:22:01;;;;;;;13.77;4.18;;;7.70;91.30;;;;;;5079127;28;20028;-76
2021/11/08 04:24:28;;;;;;;9.45;4.35;;;7.70;91.20;;;;;;5079103;28;20099;-76
2021/11/08 04:26:54;;;;;;;15.65;4.45;;;7.70;91.10;;;;;;5078617;28;20562;-76
2021/11/08 04:29:22;;;;;;;9.65;3.28;;;7.80;91.40;;;;;;5079045;28;20150;-76
2021/11/08 04:31:48;;;;;;;14.70;4.35;;;7.80;91.30;;;;;;5077330;28;20025;-76
2021/11/08 04:34:43;;;;;;;10.52;3.60;;;7.80;91.60;;;;;;5078935;28;20032;-76
2021/11/08 04:40:04;;;;;;;10.27;4.45;;;7.80;91.60;;;;;;5078925;28;20039;-76
2021/11/08 04:42:39;;;;;;;12.23;3.75;;;7.90;91.50;;;;;;5078891;28;20475;-77
2021/11/08 04:50:27;;;;;;;17.42;6.00;;;7.70;90.50;;;;;;5070232;28;20076;-76
2021/11/08 04:53:05;;;;;;;13.20;5.57;;;7.70;90.30;;;;;;5074971;28;20407;-76
2021/11/08 05:30:32;;;;;;;12.02;3.55;;;7.30;91.40;;;;;;5077482;28;20059;-76
2021/11/08 05:32:58;;;;;;;8.18;3.45;;;7.30;91.10;;;;;;5077817;28;20463;-76
2021/11/08 05:35:25;;;;;;;14.55;4.20;;;7.40;91.00;;;;;;5077883;28;20548;-77
2021/11/08 05:37:51;;;;;;;9.00;4.15;;;7.40;90.90;;;;;;5077575;28;20056;-76
2021/11/08 05:40:28;;;;;;;10.85;4.60;;;7.40;90.80;;;;;;5077662;28;20107;-76
2021/11/08 05:42:54;;;;;;;9.35;3.90;;;7.50;90.80;;;;;;5077627;28;20024;-76
2021/11/08 05:45:20;;;;;;;6.95;4.50;;;7.50;90.80;;;;;;5077490;28;20050;-76
2021/11/08 05:47:46;;;;;;;11.23;3.30;;;7.50;90.70;;;;;;5077643;28;20483;-76
2021/11/08 05:50:15;;;;;;;14.07;3.70;;;7.60;90.70;;;;;;5069789;28;20447;-76
2021/11/08 05:52:42;;;;;;;9.77;3.53;;;7.60;90.70;;;;;;5072434;28;20044;-77
2021/11/08 05:55:11;;;;;;;9.07;4.10;;;7.60;90.60;;;;;;5076301;28;20066;-77
2021/11/08 06:00:44;;;;;;;13.13;5.40;;;7.60;90.80;;;;;;5077343;28;20012;-77
2021/11/08 06:49:35;;;;;;;11.10;3.50;;;7.90;90.80;;;;;;5078704;28;20518;-77
2021/11/08 06:52:03;;;;;;;10.50;4.30;;;8.00;90.70;;;;;;5070179;28;20093;-76
2021/11/08 06:54:29;;;;;;;10.30;3.97;;;8.00;90.60;;;;;;5080765;28;20102;-77
2021/11/08 06:57:05;;;;;;;11.10;4.13;;;8.00;90.60;;;;;;5080920;28;20029;-76
2021/11/08 06:59:31;;;;;;;9.48;4.10;;;8.00;90.50;;;;;;5080041;28;20021;-76
2021/11/08 07:01:57;;;;;;;12.13;4.45;;;8.00;90.80;;;;;;5079433;28;20032;-76
2021/11/08 07:04:25;;;;;;;9.65;3.63;;;8.00;91.00;;;;;;5079824;28;20030;-76
2021/11/08 07:06:51;;;;;;;10.95;4.15;;;8.00;90.80;;;;;;5080121;28;20035;-75
2021/11/08 07:09:18;;;;;;;14.50;4.90;;;8.00;90.70;;;;;;5080379;28;20126;-75
2021/11/08 07:11:44;;;;;;;10.50;4.68;;;8.00;90.60;;;;;;5080514;28;20025;-76
2021/11/08 07:14:11;;;;;;;11.02;4.60;;;8.00;90.70;;;;;;5080340;28;20024;-76
2021/11/08 07:16:38;;;;;;;9.63;4.15;;;8.00;90.70;;;;;;5080391;28;20032;-76
2021/11/08 07:19:07;;;;;;;38.72;16.15;;;8.00;90.70;;;;;;5080241;28;20487;-76
2021/11/08 07:21:34;;;;;;;31.42;13.98;;;8.00;90.80;;;;;;5080576;28;20033;-76
2021/11/08 07:24:00;;;;;;;33.65;15.25;;;8.00;90.90;;;;;;5080092;28;20526;-76
2021/11/08 07:26:26;;;;;;;50.42;20.02;;;8.00;90.80;;;;;;5079923;28;20029;-76
2021/11/08 07:28:52;;;;;;;44.08;19.10;;;8.00;90.70;;;;;;5080178;28;20017;-76
2021/11/08 07:31:18;;;;;;;43.42;18.38;;;8.10;90.60;;;;;;5080068;28;20099;-76
2021/11/08 07:33:43;;;;;;;45.15;17.70;;;8.10;90.50;;;;;;5080013;28;20029;-76
2021/11/08 07:36:10;;;;;;;41.00;17.45;;;8.10;90.60;;;;;;5079794;28;20060;-76
2021/11/08 07:38:36;;;;;;;30.98;13.48;;;8.10;90.90;;;;;;5079950;28;20050;-76
2021/11/08 07:41:04;;;;;;;24.45;9.13;;;8.20;90.80;;;;;;5080053;28;20067;-76
2021/11/08 07:43:30;;;;;;;20.48;8.27;;;8.20;90.80;;;;;;5079966;28;20069;-76
2021/11/08 07:45:57;;;;;;;13.82;5.85;;;8.20;90.70;;;;;;5079845;28;20080;-75
2021/11/08 07:48:23;;;;;;;20.83;7.60;;;8.20;90.70;;;;;;5080223;28;20027;-76
2021/11/08 07:50:49;;;;;;;28.92;10.65;;;8.30;90.70;;;;;;5067016;28;20464;-75
2021/11/08 07:53:16;;;;;;;48.92;14.50;;;8.30;90.60;;;;;;5079065;28;20052;-76
2021/11/08 07:55:42;;;;;;;33.28;13.15;;;8.40;90.60;;;;;;5079832;28;20028;-76
2021/11/08 07:58:08;;;;;;;81.00;25.27;;;8.40;90.70;;;;;;5079743;28;20104;-75
2021/11/08 08:00:36;;;;;;;30.25;10.02;;;8.50;90.90;;;;;;5079623;28;20549;-76
2021/11/08 08:03:03;;;;;;;18.05;7.57;;;8.60;91.40;;;;;;5066256;28;20024;-75
2021/11/08 08:05:30;;;;;;;24.95;8.75;;;8.60;91.30;;;;;;5079595;28;20025;-76
2021/11/08 08:07:56;;;;;;;15.45;7.07;;;8.60;91.60;;;;;;5079664;28;20013;-76
2021/11/08 08:10:22;;;;;;;17.00;8.35;;;8.70;91.60;;;;;;5079326;28;20032;-76
2021/11/08 08:12:48;;;;;;;22.25;9.23;;;8.70;91.50;;;;;;5079465;28;20021;-76
2021/11/08 08:15:16;;;;;;;18.48;6.15;;;8.70;91.50;;;;;;5079135;28;20020;-76
2021/11/08 08:17:43;;;;;;;15.95;5.60;;;8.80;91.50;;;;;;5079446;28;20020;-76
2021/11/08 08:20:18;;;;;;;16.83;5.32;;;8.80;91.40;;;;;;5079373;28;20403;-76
2021/11/08 08:22:44;;;;;;;13.25;6.20;;;8.90;91.30;;;;;;5079427;28;20020;-76
2021/11/08 08:25:10;;;;;;;13.80;5.85;;;8.90;91.20;;;;;;5078965;28;20017;-76
2021/11/08 08:27:37;;;;;;;14.50;4.85;;;9.00;91.10;;;;;;5078855;28;20038;-76
2021/11/08 08:30:05;;;;;;;14.48;4.63;;;9.00;91.00;;;;;;5078605;28;20029;-76
2021/11/08 08:32:31;;;;;;;12.50;4.95;;;9.10;91.10;;;;;;5079112;28;20031;-76
2021/11/08 08:34:56;;;;;;;16.17;4.88;;;9.20;91.10;;;;;;5078945;28;20020;-76
2021/11/08 08:37:23;;;;;;;13.15;4.32;;;9.20;91.10;;;;;;5078856;28;20094;-75
2021/11/08 08:39:50;;;;;;;12.32;5.35;;;9.30;91.00;;;;;;5077445;28;20561;-76
2021/11/08 08:42:16;;;;;;;15.43;5.20;;;9.30;90.90;;;;;;5079196;28;20571;-76
2021/11/08 08:44:42;;;;;;;14.20;5.10;;;9.40;90.90;;;;;;5078360;28;20024;-75
2021/11/08 08:47:08;;;;;;;10.82;5.07;;;9.50;90.80;;;;;;5078875;28;20035;-75
2021/11/08 08:49:34;;;;;;;18.23;6.03;;;9.60;90.90;;;;;;5075460;28;20105;-75
2021/11/08 08:52:00;;;;;;;17.30;5.30;;;9.60;90.80;;;;;;5068088;28;20085;-76
2021/11/08 08:54:26;;;;;;;14.93;4.95;;;9.70;90.80;;;;;;5078372;28;20054;-76
2021/11/08 08:56:52;;;;;;;17.30;5.32;;;9.70;90.70;;;;;;5078708;28;20023;-75
2021/11/08 08:59:20;;;;;;;12.40;4.75;;;9.70;90.80;;;;;;5078117;28;20090;-76
2021/11/08 09:01:46;;;;;;;12.85;5.45;;;9.80;90.50;;;;;;5078582;28;20027;-76
2021/11/08 09:04:12;;;;;;;16.67;5.32;;;9.80;90.60;;;;;;5078137;28;20028;-76
2021/11/08 09:06:38;;;;;;;13.20;4.90;;;9.90;90.60;;;;;;5077058;28;20016;-76
2021/11/08 09:09:05;;;;;;;13.23;5.43;;;10.00;90.70;;;;;;5077984;28;20025;-76
2021/11/08 09:11:31;;;;;;;15.65;5.60;;;10.10;90.70;;;;;;5078297;28;20086;-76
2021/11/08 09:14:01;;;;;;;16.52;5.45;;;10.30;90.70;;;;;;5078014;28;20024;-76
2021/11/08 09:16:30;;;;;;;13.15;5.97;;;10.50;90.60;;;;;;5077982;28;20024;-76
2021/11/08 09:18:57;;;;;;;17.70;6.32;;;10.60;90.50;;;;;;5077936;28;20023;-76
2021/11/08 09:21:25;;;;;;;21.42;6.68;;;10.70;90.20;;;;;;5078076;28;20028;-76
2021/11/08 09:23:52;;;;;;;20.85;7.88;;;10.80;90.10;;;;;;5077624;28;20028;-76
2021/11/08 09:26:19;;;;;;;20.33;7.20;;;10.90;90.00;;;;;;5077644;28;20020;-75
2021/11/08 09:28:46;;;;;;;20.75;7.47;;;11.10;89.40;;;;;;5077759;28;20032;-76
2021/11/08 09:31:12;;;;;;;19.02;6.97;;;11.10;89.10;;;;;;5077622;28;20020;-76
2021/11/08 09:33:39;;;;;;;17.65;6.82;;;11.20;89.00;;;;;;5077891;28;20027;-76
2021/11/08 09:36:08;;;;;;;15.20;6.38;;;11.20;89.10;;;;;;5077571;28;20051;-76
2021/11/08 09:38:37;;;;;;;16.88;5.50;;;11.40;89.70;;;;;;5077774;28;20028;-76
2021/11/08 09:41:10;;;;;;;14.65;5.95;;;11.50;89.40;;;;;;5077627;28;20016;-76
2021/11/08 09:43:37;;;;;;;18.48;5.80;;;11.70;88.70;;;;;;5077619;28;20032;-75
2021/11/08 09:46:03;;;;;;;16.67;6.15;;;11.90;89.60;;;;;;5077247;28;20384;-76
2021/11/08 09:48:29;;;;;;;19.75;6.22;;;12.20;89.80;;;;;;5077745;28;20483;-75
2021/11/08 09:50:58;;;;;;;15.50;5.95;;;12.40;89.50;;;;;;5063998;28;20013;-76
2021/11/08 09:53:23;;;;;;;21.27;5.47;;;12.70;89.10;;;;;;5077406;28;20055;-76
2021/11/08 09:55:50;;;;;;;18.30;5.90;;;13.00;86.60;;;;;;5077375;28;20020;-76
2021/11/08 09:58:16;;;;;;;14.25;5.00;;;13.10;86.50;;;;;;5077560;28;20438;-76
2021/11/08 10:00:53;;;;;;;16.52;5.18;;;13.30;87.30;;;;;;5077216;28;20100;-75
2021/11/08 10:03:28;;;;;;;14.85;4.97;;;13.80;87.10;;;;;;5077373;28;20032;-76
2021/11/08 10:05:56;;;;;;;16.63;5.85;;;14.40;86.80;;;;;;5077254;28;20027;-76
2021/11/08 10:08:26;;;;;;;16.30;6.28;;;15.10;85.50;;;;;;5077576;28;20063;-76
2021/11/08 10:10:55;;;;;;;22.10;7.78;;;15.70;84.70;;;;;;5075837;28;20016;-76
2021/11/08 10:13:24;;;;;;;20.00;8.93;;;16.10;81.10;;;;;;5077383;28;20036;-75
2021/11/08 10:15:52;;;;;;;23.77;10.38;;;16.10;78.80;;;;;;5076892;28;20021;-76
2021/11/08 10:18:20;;;;;;;21.38;9.45;;;16.00;78.60;;;;;;5077277;28;20070;-76
2021/11/08 10:20:48;;;;;;;19.45;10.55;;;15.90;80.20;;;;;;5077326;28;20056;-75
2021/11/08 10:23:18;;;;;;;28.77;11.40;;;16.00;80.70;;;;;;5075684;28;20035;-75
2021/11/08 10:25:45;;;;;;;22.50;11.48;;;16.00;80.10;;;;;;5077157;28;20395;-75
2021/11/08 10:28:15;;;;;;;22.17;12.75;;;16.00;80.20;;;;;;5076582;28;20021;-76
2021/11/08 10:30:43;;;;;;;25.85;11.82;;;15.90;81.10;;;;;;5066107;28;20016;-76
2021/11/08 10:33:13;;;;;;;26.65;12.32;;;15.80;81.30;;;;;;5077027;28;20020;-76
2021/11/08 10:35:46;;;;;;;28.67;12.45;;;15.80;81.50;;;;;;5076972;28;20025;-76
2021/11/08 10:38:25;;;;;;;29.23;13.32;;;15.90;81.20;;;;;;5076994;28;20089;-76
2021/11/08 10:40:58;;;;;;;22.77;12.73;;;16.00;80.90;;;;;;5076922;28;20645;-76
2021/11/08 10:43:29;;;;;;;31.00;13.70;;;16.10;80.70;;;;;;5064151;28;20035;-76
2021/11/08 10:46:01;;;;;;;32.20;14.50;;;16.10;79.70;;;;;;5076774;28;20123;-76
2021/11/08 10:48:32;;;;;;;33.67;15.77;;;16.10;80.30;;;;;;5077516;28;20028;-76
2021/11/08 10:51:00;;;;;;;32.45;15.88;;;16.10;80.60;;;;;;5063239;28;20162;-76
2021/11/08 10:53:30;;;;;;;30.35;14.43;;;16.00;80.00;;;;;;5076891;28;20029;-76
2021/11/08 10:55:59;;;;;;;30.25;14.85;;;16.00;79.90;;;;;;5076599;28;20052;-76
2021/11/08 10:58:25;;;;;;;30.83;13.13;;;16.10;80.00;;;;;;5077143;28;20025;-76
2021/11/08 11:01:01;;;;;;;32.75;14.88;;;16.20;79.10;;;;;;5076525;28;20402;-76
2021/11/08 11:03:27;;;;;;;23.27;13.82;;;16.20;79.40;;;;;;5076781;28;20031;-76
2021/11/08 11:06:04;;;;;;;27.67;13.35;;;16.50;79.50;;;;;;5076697;28;20013;-76
2021/11/08 11:08:31;;;;;;;24.13;11.73;;;16.80;79.00;;;;;;5076798;28;20071;-76
2021/11/08 11:11:05;;;;;;;27.30;11.70;;;17.00;77.30;;;;;;5076885;28;20922;-75
2021/11/08 11:13:33;;;;;;;28.67;11.52;;;17.10;77.30;;;;;;5079172;28;20024;-76
2021/11/08 11:16:02;;;;;;;29.52;10.70;;;17.20;76.40;;;;;;5080378;28;20017;-76
2021/11/08 11:18:35;;;;;;;27.50;9.35;;;17.50;76.60;;;;;;5080277;28;20031;-76
2021/11/08 11:21:20;;;;;;;22.73;8.25;;;17.70;76.00;;;;;;5080454;28;20031;-76
2021/11/08 11:23:50;;;;;;;21.35;8.60;;;17.80;75.70;;;;;;5080027;28;20029;-76
2021/11/08 11:26:20;;;;;;;26.17;8.20;;;17.90;75.50;;;;;;5080018;28;20020;-76
2021/11/08 11:28:48;;;;;;;24.58;9.27;;;18.00;75.70;;;;;;5079915;28;20021;-76
2021/11/08 11:31:19;;;;;;;26.10;10.07;;;18.00;74.90;;;;;;5079967;28;20028;-76
2021/11/08 11:33:46;;;;;;;25.55;9.45;;;18.00;74.60;;;;;;5077445;28;20479;-76
2021/11/08 11:36:17;;;;;;;17.75;6.00;;;18.10;74.30;;;;;;5079882;28;20040;-76
2021/11/08 11:39:06;;;;;;;9.40;3.72;;;18.10;73.20;;;;;;5079993;28;20024;-76
2021/11/08 11:41:35;;;;;;;18.88;3.47;;;18.10;72.80;;;;;;5079850;28;20025;-75
2021/11/08 11:44:06;;;;;;;14.73;3.55;;;18.00;73.10;;;;;;5079403;28;20024;-75
2021/11/08 11:46:36;;;;;;;15.70;3.40;;;18.00;73.10;;;;;;5078246;28;20021;-76
2021/11/08 11:49:03;;;;;;;16.55;3.50;;;18.00;72.60;;;;;;5079870;28;20453;-75
2021/11/08 11:51:54;;;;;;;24.15;5.05;;;18.00;72.50;;;;;;5081443;28;20489;-75
2021/11/08 11:54:25;;;;;;;15.45;4.30;;;17.90;72.70;;;;;;5074399;28;20463;-75
2021/11/08 11:56:52;;;;;;;14.75;3.65;;;17.90;73.30;;;;;;5079677;28;20032;-75
2021/11/08 11:59:19;;;;;;;19.00;3.55;;;17.80;73.90;;;;;;5079278;28;20040;-75
2021/11/08 12:01:46;;;;;;;17.60;3.92;;;17.90;73.60;;;;;;5079768;28;20480;-75
2021/11/08 12:04:13;;;;;;;15.85;3.13;;;17.90;73.20;;;;;;5079473;28;20086;-75
2021/11/08 12:06:43;;;;;;;18.73;5.10;;;17.80;68.40;;;;;;5079729;28;20467;-75
2021/11/08 12:09:13;;;;;;;14.10;4.80;;;17.70;70.10;;;;;;5079434;28;20095;-75
2021/11/08 12:11:41;;;;;;;17.67;4.80;;;17.60;71.50;;;;;;5079534;28;20019;-75
2021/11/08 12:14:18;;;;;;;23.55;5.13;;;17.50;72.20;;;;;;5078969;28;20036;-75
2021/11/08 12:17:03;;;;;;;16.25;5.53;;;17.40;72.40;;;;;;5079568;28;20032;-75
2021/11/08 12:19:41;;;;;;;20.58;5.43;;;17.30;71.90;;;;;;5067830;28;20488;-76
2021/11/08 12:22:12;;;;;;;20.17;4.28;;;17.10;72.00;;;;;;5078891;28;20028;-75
2021/11/08 12:24:38;;;;;;;15.25;4.10;;;17.00;72.50;;;;;;5078405;28;20395;-76
2021/11/08 12:27:07;;;;;;;23.10;5.03;;;16.90;70.90;;;;;;5078708;28;20020;-76
2021/11/08 12:29:34;;;;;;;16.35;3.20;;;16.90;72.20;;;;;;5079062;28;20025;-75
2021/11/08 12:32:09;;;;;;;22.45;3.92;;;16.90;72.60;;;;;;5078910;28;20082;-76
2021/11/08 12:34:40;;;;;;;22.83;3.47;;;17.00;72.40;;;;;;5079106;28;20143;-75
2021/11/08 12:37:07;;;;;;;19.65;4.18;;;17.00;73.20;;;;;;5066260;28;20106;-76
2021/11/08 12:39:34;;;;;;;19.13;3.85;;;17.20;72.40;;;;;;5079132;28;20119;-76
2021/11/08 12:42:08;;;;;;;16.48;3.97;;;17.30;72.10;;;;;;5078991;28;20047;-76
2021/11/08 12:44:40;;;;;;;18.25;3.17;;;17.40;71.50;;;;;;5078562;28;20035;-74
2021/11/08 12:47:09;;;;;;;23.25;4.97;;;17.50;72.00;;;;;;5078939;28;20422;-75
2021/11/08 12:49:42;;;;;;;13.40;3.30;;;17.50;71.40;;;;;;5075812;28;20479;-74
2021/11/08 12:52:17;;;;;;;19.08;3.70;;;17.50;71.90;;;;;;5069037;28;20044;-75
2021/11/08 12:55:00;;;;;;;14.52;2.97;;;17.50;71.10;;;;;;5078407;28;20020;-76
2021/11/08 12:57:27;;;;;;;12.82;3.17;;;17.40;71.20;;;;;;5078418;28;20032;-76
2021/11/08 13:00:05;;;;;;;19.55;4.32;;;17.30;71.70;;;;;;5078376;28;20502;-76
2021/11/08 13:02:40;;;;;;;18.02;4.53;;;17.20;70.40;;;;;;5078172;28;20032;-75
2021/11/08 13:05:11;;;;;;;15.23;3.65;;;17.10;70.80;;;;;;5078240;28;20434;-76
2021/11/08 13:07:43;;;;;;;13.15;3.53;;;17.10;71.80;;;;;;5078328;28;20078;-77
2021/11/08 13:10:25;;;;;;;20.48;3.90;;;17.10;71.60;;;;;;5077177;28;20090;-77
2021/11/08 13:12:53;;;;;;;10.10;3.97;;;17.00;71.50;;;;;;5064877;28;20051;-77
2021/11/08 13:15:26;;;;;;;20.48;3.75;;;17.00;71.70;;;;;;5077957;28;20021;-77
2021/11/08 13:18:02;;;;;;;20.50;3.78;;;17.00;71.90;;;;;;5078596;28;20487;-77
2021/11/08 13:20:42;;;;;;;18.70;4.55;;;17.00;72.20;;;;;;5078083;28;20088;-76
2021/11/08 13:23:13;;;;;;;17.25;3.80;;;17.00;69.70;;;;;;5078090;28;20028;-77
2021/11/08 13:25:52;;;;;;;15.32;4.05;;;16.90;68.90;;;;;;5065239;28;20021;-77
2021/11/08 13:28:21;;;;;;;17.80;4.63;;;16.90;71.00;;;;;;5076926;28;20494;-77
2021/11/08 13:30:53;;;;;;;20.67;4.65;;;16.90;71.70;;;;;;5077672;28;20024;-76
2021/11/08 13:33:25;;;;;;;11.93;3.58;;;16.80;71.30;;;;;;5076351;28;20028;-77
2021/11/08 13:35:51;;;;;;;18.93;4.67;;;16.70;70.50;;;;;;5077437;28;20580;-76
2021/11/08 13:38:24;;;;;;;20.98;3.90;;;16.60;71.50;;;;;;5077614;28;20259;-77
2021/11/08 13:40:54;;;;;;;16.38;3.70;;;16.60;71.80;;;;;;5076293;28;20029;-77
2021/11/08 13:43:44;;;;;;;13.95;3.63;;;16.60;72.60;;;;;;5077433;28;20030;-77
2021/11/08 13:46:26;;;;;;;16.75;3.47;;;16.60;73.40;;;;;;5077323;28;20086;-77
2021/11/08 13:48:57;;;;;;;22.00;3.85;;;16.60;73.70;;;;;;5077732;28;20016;-74
2021/11/08 13:51:25;;;;;;;21.75;4.60;;;16.60;73.80;;;;;;5063725;28;20024;-74
2021/11/08 13:53:55;;;;;;;16.38;3.53;;;16.60;73.20;;;;;;5076035;28;20028;-75
2021/11/08 13:56:22;;;;;;;17.73;4.53;;;16.60;73.20;;;;;;5077351;28;20104;-74
2021/11/08 13:58:52;;;;;;;19.77;4.57;;;16.60;73.30;;;;;;5076060;28;20024;-75
2021/11/08 14:01:22;;;;;;;15.90;3.13;;;16.60;72.10;;;;;;5077341;28;20028;-75
2021/11/08 14:03:51;;;;;;;18.13;3.80;;;16.60;72.30;;;;;;5077362;28;20021;-75
2021/11/08 14:06:47;;;;;;;21.10;4.30;;;16.60;72.80;;;;;;5063802;28;20112;-75
2021/11/08 14:09:21;;;;;;;18.40;3.70;;;16.60;70.70;;;;;;5073790;28;20032;-75
2021/11/08 14:11:48;;;;;;;13.52;3.45;;;16.60;72.10;;;;;;5077238;28;20017;-75
2021/11/08 14:14:17;;;;;;;14.60;3.85;;;16.60;72.70;;;;;;5075105;28;20059;-74
2021/11/08 14:16:47;;;;;;;18.85;4.00;;;16.60;73.10;;;;;;5077253;28;20032;-74
2021/11/08 14:19:15;;;;;;;21.15;4.25;;;16.60;72.80;;;;;;5064621;28;20016;-75
2021/11/08 14:21:43;;;;;;;12.80;3.72;;;16.50;71.00;;;;;;5075854;28;20028;-75
2021/11/08 14:24:13;;;;;;;21.55;4.90;;;16.40;70.80;;;;;;5077072;28;20390;-75
2021/11/08 14:26:43;;;;;;;23.02;6.10;;;16.30;71.70;;;;;;5076857;28;20092;-75
2021/11/08 14:29:24;;;;;;;21.17;7.43;;;16.20;72.50;;;;;;5076843;28;20016;-74
2021/11/08 14:32:04;;;;;;;28.30;9.10;;;16.10;72.50;;;;;;5077088;28;20016;-74